createdAt,value
2022-08-25T00:00:37.633Z,93912.47
2022-08-25T00:05:47.360Z,93906.34
2022-08-25T00:11:03.150Z,93886.78
2022-08-25T00:16:05.854Z,93906.81
2022-08-25T00:21:08.129Z,93905.00
2022-08-25T00:26:10.241Z,93909.84
2022-08-25T00:31:15.412Z,93894.25
2022-08-25T00:36:18.640Z,93899.38
2022-08-25T00:41:22.605Z,93858.63
2022-08-25T00:46:28.123Z,93886.66
2022-08-25T00:51:39.531Z,93890.59
2022-08-25T00:56:42.375Z,93883.94
2022-08-25T01:01:44.169Z,93889.22
2022-08-25T01:06:46.639Z,93860.81
2022-08-25T01:11:48.987Z,93875.66
2022-08-25T01:16:53.928Z,93878.72
2022-08-25T01:21:56.199Z,93872.16
2022-08-25T01:26:58.518Z,93868.59
2022-08-25T01:32:04.052Z,93868.06
2022-08-25T01:37:05.990Z,93867.38
2022-08-25T01:42:09.363Z,93839.53
2022-08-25T01:47:12.471Z,93868.13
2022-08-25T01:52:34.286Z,93853.84
2022-08-25T01:57:36.198Z,93875.59
2022-08-25T02:02:42.491Z,93894.31
2022-08-25T02:07:44.836Z,93898.75
2022-08-25T02:12:46.757Z,93913.38
2022-08-25T02:17:48.661Z,93919.06
2022-08-25T02:22:56.953Z,93882.44
2022-08-25T02:27:59.315Z,93889.09
2022-08-25T02:33:01.366Z,93903.91
2022-08-25T02:38:04.064Z,93901.97
2022-08-25T02:43:06.265Z,93868.19
2022-08-25T02:48:08.205Z,93901.00
2022-08-25T02:53:10.071Z,93903.91
2022-08-25T02:58:12.065Z,93896.75
2022-08-25T03:03:17.522Z,93891.34
2022-08-25T03:08:19.451Z,93888.75
2022-08-25T03:13:21.437Z,93856.94
2022-08-25T03:18:23.480Z,93853.88
2022-08-25T03:23:26.899Z,93892.13
2022-08-25T03:28:31.392Z,93894.25
2022-08-25T03:33:33.473Z,93894.50
2022-08-25T03:38:38.497Z,93898.94
2022-08-25T03:43:40.521Z,93897.31
2022-08-25T03:48:42.352Z,93869.16
2022-08-25T03:53:44.403Z,93904.13
2022-08-25T03:58:46.675Z,93908.00
2022-08-25T04:03:48.959Z,93905.56
2022-08-25T04:08:52.859Z,93889.16
2022-08-25T04:13:57.768Z,93916.56
2022-08-25T04:19:01.672Z,93919.00
2022-08-25T04:24:05.351Z,93926.50
2022-08-25T04:29:10.014Z,93937.88
2022-08-25T04:34:14.826Z,93932.59
2022-08-25T04:39:32.942Z,93944.06
2022-08-25T04:44:34.835Z,93957.09
2022-08-25T04:49:37.365Z,93916.97
2022-08-25T04:54:39.435Z,93939.38
2022-08-25T04:59:41.275Z,93950.97
2022-08-25T05:04:43.467Z,93949.31
2022-08-25T05:09:45.465Z,93962.09
2022-08-25T05:14:47.424Z,93913.66
2022-08-25T05:19:49.372Z,93958.06
2022-08-25T05:24:51.360Z,93955.50
2022-08-25T05:29:53.284Z,93976.13
2022-08-25T05:34:55.155Z,93974.44
2022-08-25T05:39:57.159Z,93967.84
2022-08-25T05:44:59.204Z,93979.53
2022-08-25T05:50:01.522Z,93957.66
2022-08-25T05:55:04.647Z,93993.31
2022-08-25T06:00:07.863Z,93969.13
2022-08-25T06:05:23.125Z,94009.38
2022-08-25T06:10:28.207Z,94021.06
2022-08-25T06:15:30.474Z,94021.88
2022-08-25T06:20:32.716Z,94020.75
2022-08-25T06:25:35.416Z,94013.72
2022-08-25T06:30:39.697Z,94017.63
2022-08-25T06:35:43.036Z,94023.78
2022-08-25T06:40:47.872Z,94020.66
2022-08-25T06:45:50.484Z,94010.91
2022-08-25T06:50:52.348Z,94029.84
2022-08-25T06:55:58.236Z,94005.88
2022-08-25T07:01:13.436Z,94037.50
2022-08-25T07:06:18.767Z,94036.19
2022-08-25T07:11:21.553Z,94007.56
2022-08-25T07:16:25.715Z,94040.19
2022-08-25T07:21:35.691Z,94036.13
2022-08-25T07:26:39.625Z,94040.66
2022-08-25T07:31:41.952Z,94021.19
2022-08-25T07:36:44.570Z,94024.56
2022-08-25T07:41:46.672Z,94027.03
2022-08-25T07:46:54.509Z,94026.16
2022-08-25T07:52:04.285Z,94049.88
2022-08-25T07:57:08.141Z,94009.50
2022-08-25T08:02:18.215Z,94047.44
2022-08-25T08:07:23.991Z,94030.81
2022-08-25T08:12:44.668Z,94051.44
2022-08-25T08:17:46.770Z,94062.81
2022-08-25T08:22:50.128Z,94027.72
2022-08-25T08:27:55.117Z,94073.28
2022-08-25T08:33:09.550Z,94072.34
2022-08-25T08:38:17.310Z,94077.63
2022-08-25T08:43:21.637Z,94082.03
2022-08-25T08:48:40.928Z,94089.19
2022-08-25T08:53:57.674Z,94081.72
2022-08-25T08:59:19.608Z,94074.41
2022-08-25T09:04:41.203Z,94085.47
2022-08-25T09:09:43.886Z,94080.84
2022-08-25T09:15:00.773Z,94059.13
2022-08-25T09:20:06.199Z,94064.75
2022-08-25T09:25:54.077Z,94087.34
2022-08-25T09:31:05.903Z,94057.47
2022-08-25T09:36:08.796Z,94082.56
2022-08-25T09:41:11.548Z,94076.53
2022-08-25T09:46:28.632Z,94075.50
2022-08-25T09:51:42.943Z,94084.53
2022-08-25T09:57:05.546Z,94086.88
2022-08-25T10:02:29.746Z,94068.72
2022-08-25T10:07:37.787Z,94072.69
2022-08-25T10:12:43.119Z,94073.94
2022-08-25T10:17:45.259Z,94061.88
2022-08-25T10:22:50.589Z,94065.06
2022-08-25T10:28:12.628Z,94052.94
2022-08-25T10:33:33.715Z,94060.22
2022-08-25T10:38:39.386Z,94061.34
2022-08-25T10:44:34.120Z,94056.06
2022-08-25T10:49:51.348Z,94060.19
2022-08-25T10:55:05.313Z,94041.16
2022-08-25T11:00:14.145Z,94048.09
2022-08-25T11:05:37.004Z,94036.50
2022-08-25T11:10:44.028Z,94032.97
2022-08-25T11:16:15.854Z,94008.50
2022-08-25T11:21:36.656Z,94025.41
2022-08-25T11:26:42.155Z,94025.47
2022-08-25T11:31:52.751Z,94002.34
2022-08-25T11:37:01.231Z,94018.28
2022-08-25T11:42:18.645Z,93984.53
2022-08-25T11:48:11.628Z,94003.50
2022-08-25T11:53:18.559Z,94000.88
2022-08-25T11:58:51.780Z,94001.97
2022-08-25T12:03:54.944Z,93991.00
2022-08-25T12:09:10.481Z,93984.06
2022-08-25T12:14:38.344Z,93996.16
2022-08-25T12:19:40.307Z,93995.22
2022-08-25T12:24:47.285Z,93995.00
2022-08-25T12:29:56.357Z,93989.63
2022-08-25T12:35:11.245Z,93987.16
2022-08-25T12:40:49.530Z,93988.88
2022-08-25T12:45:53.192Z,93953.38
2022-08-25T12:51:02.103Z,93977.84
2022-08-25T12:56:17.267Z,93942.94
2022-08-25T13:01:32.943Z,93948.69
2022-08-25T13:07:13.730Z,93949.88
2022-08-25T13:12:22.711Z,93970.69
2022-08-25T13:17:33.737Z,93955.44
2022-08-25T13:22:36.088Z,93922.66
2022-08-25T13:27:39.282Z,93958.47
2022-08-25T13:32:41.334Z,93940.69
2022-08-25T13:37:43.945Z,93946.00
2022-08-25T13:42:55.602Z,93940.03
2022-08-25T13:47:58.180Z,93934.78
2022-08-25T13:53:05.964Z,93924.78
2022-08-25T13:58:15.178Z,93923.47
2022-08-25T14:03:35.052Z,93929.19
2022-08-25T14:08:39.769Z,93912.00
2022-08-25T14:13:44.731Z,93911.91
2022-08-25T14:18:55.086Z,93903.78
2022-08-25T14:24:00.633Z,93886.50
2022-08-25T14:29:02.698Z,93883.16
2022-08-25T14:34:14.457Z,93880.03
2022-08-25T14:39:17.347Z,93881.53
2022-08-25T14:44:19.282Z,93876.50
2022-08-25T14:49:29.906Z,93871.44
2022-08-25T14:54:33.697Z,93833.72
2022-08-25T14:59:43.210Z,93830.28
2022-08-25T15:04:59.737Z,93848.09
2022-08-25T15:10:02.126Z,93852.59
2022-08-25T15:15:06.456Z,93846.16
2022-08-25T15:20:09.589Z,93848.16
2022-08-25T15:25:13.162Z,93843.22
2022-08-25T15:30:15.324Z,93846.28
2022-08-25T15:35:17.539Z,93838.59
2022-08-25T15:40:20.155Z,93838.88
2022-08-25T15:45:22.854Z,93833.06
2022-08-25T15:50:27.232Z,93838.78
2022-08-25T15:55:29.067Z,93837.75
2022-08-25T16:00:31.768Z,93806.50
2022-08-25T16:05:36.054Z,93831.00
2022-08-25T16:10:42.327Z,93834.88
2022-08-25T16:15:52.982Z,93831.13
2022-08-25T16:20:56.440Z,93827.13
2022-08-25T16:25:58.236Z,93826.69
2022-08-25T16:31:00.846Z,93815.06
2022-08-25T16:36:15.767Z,93824.94
2022-08-25T16:41:21.219Z,93820.69
2022-08-25T16:46:23.934Z,93814.41
2022-08-25T16:51:29.790Z,93813.06
2022-08-25T16:56:35.303Z,93814.00
2022-08-25T17:01:40.975Z,93806.09
2022-08-25T17:06:51.883Z,93777.91
2022-08-25T17:11:56.880Z,93809.69
2022-08-25T17:16:58.855Z,93813.53
2022-08-25T17:22:00.778Z,93782.78
2022-08-25T17:27:02.915Z,93788.59
2022-08-25T17:32:05.043Z,93814.41
2022-08-25T17:37:07.016Z,93812.19
2022-08-25T17:42:09.129Z,93816.66
2022-08-25T17:47:11.685Z,93815.81
2022-08-25T17:52:13.856Z,93809.00
2022-08-25T17:57:16.370Z,93809.41
2022-08-25T18:02:18.342Z,93811.59
2022-08-25T18:07:20.396Z,93820.00
2022-08-25T18:12:27.535Z,93829.66
2022-08-25T18:17:29.642Z,93851.47
2022-08-25T18:22:32.418Z,93852.72
2022-08-25T18:27:35.351Z,93850.41
2022-08-25T18:32:37.442Z,93908.88
2022-08-25T18:37:58.398Z,93921.16
2022-08-25T18:43:06.984Z,93925.31
2022-08-25T18:48:09.995Z,93944.34
2022-08-25T18:53:12.425Z,93954.50
2022-08-25T18:58:14.584Z,93951.69
2022-08-25T19:03:17.312Z,93948.44
2022-08-25T19:08:21.852Z,93958.19
2022-08-25T19:13:23.863Z,93966.13
2022-08-25T19:18:26.148Z,93972.38
2022-08-25T19:23:32.690Z,93981.38
2022-08-25T19:28:35.817Z,93995.00
2022-08-25T19:33:44.921Z,93995.88
2022-08-25T19:38:47.278Z,94014.25
2022-08-25T19:43:56.559Z,94019.56
2022-08-25T19:49:01.543Z,94026.81
2022-08-25T19:54:09.156Z,94003.56
2022-08-25T19:59:12.252Z,94048.56
2022-08-25T20:04:14.282Z,94045.81
2022-08-25T20:09:36.040Z,94057.00
2022-08-25T20:14:40.043Z,94075.22
2022-08-25T20:19:43.161Z,94044.00
2022-08-25T20:24:51.074Z,94087.88
2022-08-25T20:29:59.589Z,94069.41
2022-08-25T20:35:06.594Z,94100.50
2022-08-25T20:40:15.313Z,94099.25
2022-08-25T20:45:18.629Z,94112.84
2022-08-25T20:50:20.762Z,94107.13
2022-08-25T20:55:23.910Z,94118.22
2022-08-25T21:00:28.020Z,94127.50
2022-08-25T21:05:30.020Z,94136.09
2022-08-25T21:10:33.355Z,94108.25
2022-08-25T21:15:37.569Z,94135.88
2022-08-25T21:20:39.486Z,94142.47
2022-08-25T21:25:42.335Z,94145.22
2022-08-25T21:30:44.721Z,94126.88
2022-08-25T21:35:49.400Z,94153.16
2022-08-25T21:40:51.463Z,94166.13
2022-08-25T21:45:53.671Z,94161.34
2022-08-25T21:51:10.337Z,94165.97
2022-08-25T21:56:18.225Z,94130.13
2022-08-25T22:01:21.546Z,94167.72
2022-08-25T22:06:25.137Z,94170.47
2022-08-25T22:11:28.382Z,94157.16
2022-08-25T22:16:36.889Z,94163.03
2022-08-25T22:21:39.727Z,94167.06
2022-08-25T22:26:42.192Z,94157.09
2022-08-25T22:31:49.669Z,94168.59
2022-08-25T22:36:54.917Z,94171.44
2022-08-25T22:42:03.042Z,94175.41
2022-08-25T22:47:05.258Z,94178.63
2022-08-25T22:52:09.286Z,94153.59
2022-08-25T22:57:13.501Z,94181.63
2022-08-25T23:02:16.017Z,94187.44
2022-08-25T23:07:18.581Z,94185.59
2022-08-25T23:12:21.249Z,94189.63
2022-08-25T23:17:24.740Z,94188.00
2022-08-25T23:22:27.057Z,94190.66
2022-08-25T23:27:28.980Z,94190.31
2022-08-25T23:32:30.919Z,94185.06
2022-08-25T23:37:33.572Z,94190.16
2022-08-25T23:42:35.483Z,94161.25
2022-08-25T23:47:39.361Z,94207.31
2022-08-25T23:52:41.300Z,94209.41
2022-08-25T23:57:43.147Z,94212.03
